createdAt,value
2022-12-03T00:00:17.819Z,25.03
2022-12-03T00:02:44.271Z,32.13
2022-12-03T00:05:10.783Z,31.20
2022-12-03T00:07:37.558Z,29.03
2022-12-03T00:10:05.306Z,25.63
2022-12-03T00:12:31.651Z,31.03
2022-12-03T00:14:58.248Z,31.37
2022-12-03T00:17:24.736Z,26.20
2022-12-03T00:19:51.079Z,27.87
2022-12-03T00:22:17.371Z,28.83
2022-12-03T00:24:43.689Z,29.73
2022-12-03T00:27:10.017Z,31.23
2022-12-03T00:29:38.147Z,30.73
2022-12-03T00:32:04.620Z,28.80
2022-12-03T00:34:31.064Z,35.23
2022-12-03T00:36:57.392Z,24.37
2022-12-03T00:39:23.712Z,27.87
2022-12-03T00:41:50.057Z,29.27
2022-12-03T00:44:17.578Z,31.80
2022-12-03T00:46:43.995Z,24.53
2022-12-03T00:49:15.376Z,24.20
2022-12-03T00:51:41.705Z,38.03
2022-12-03T00:54:08.245Z,25.77
2022-12-03T00:56:34.610Z,26.60
2022-12-03T00:59:00.940Z,30.13
2022-12-03T01:01:27.271Z,28.57
2022-12-03T01:03:53.635Z,25.67
2022-12-03T01:06:20.272Z,27.63
2022-12-03T01:08:46.611Z,28.90
2022-12-03T01:11:31.482Z,31.53
2022-12-03T01:13:58.224Z,36.00
2022-12-03T01:16:24.589Z,30.57
2022-12-03T01:18:52.685Z,30.47
2022-12-03T01:21:19.586Z,32.53
2022-12-03T01:23:46.203Z,24.47
2022-12-03T01:26:12.523Z,27.37
2022-12-03T01:28:38.867Z,35.00
2022-12-03T01:31:23.654Z,30.20
2022-12-03T01:33:50.049Z,31.27
2022-12-03T01:36:16.339Z,39.40
2022-12-03T01:38:43.740Z,31.90
2022-12-03T01:41:11.831Z,33.27
2022-12-03T01:43:38.686Z,28.63
2022-12-03T01:46:05.217Z,37.07
2022-12-03T01:48:35.543Z,34.50
2022-12-03T01:51:02.021Z,26.63
2022-12-03T01:53:28.359Z,32.13
2022-12-03T01:55:54.752Z,33.70
2022-12-03T01:58:25.600Z,32.53
2022-12-03T02:00:51.934Z,30.00
2022-12-03T02:03:23.201Z,27.40
2022-12-03T02:05:50.177Z,29.53
2022-12-03T02:08:34.520Z,28.30
2022-12-03T02:11:09.320Z,32.83
2022-12-03T02:13:36.299Z,29.63
2022-12-03T02:16:04.257Z,34.87
2022-12-03T02:18:30.627Z,26.67
2022-12-03T02:21:18.501Z,33.13
2022-12-03T02:24:10.187Z,28.50
2022-12-03T02:26:36.547Z,30.30
2022-12-03T02:29:03.919Z,31.23
2022-12-03T02:31:30.280Z,31.73
2022-12-03T02:33:56.714Z,30.27
2022-12-03T02:36:23.252Z,33.07
2022-12-03T02:38:50.812Z,31.07
2022-12-03T02:41:38.764Z,28.50
2022-12-03T02:44:06.826Z,27.20
2022-12-03T02:46:33.979Z,33.30
2022-12-03T02:49:01.746Z,32.37
2022-12-03T02:51:28.138Z,28.43
2022-12-03T02:53:55.871Z,29.53
2022-12-03T02:56:26.781Z,28.27
2022-12-03T02:58:56.886Z,32.53
2022-12-03T03:01:23.311Z,37.37
2022-12-03T03:03:51.486Z,32.80
2022-12-03T03:06:19.215Z,29.43
2022-12-03T03:08:46.487Z,33.37
2022-12-03T03:11:12.996Z,34.27
2022-12-03T03:13:39.639Z,34.57
2022-12-03T03:16:07.590Z,29.37
2022-12-03T03:18:34.959Z,28.70
2022-12-03T03:21:01.792Z,32.57
2022-12-03T03:23:28.305Z,35.00
2022-12-03T03:26:14.202Z,36.13
2022-12-03T03:28:45.476Z,33.97
2022-12-03T03:31:15.986Z,29.80
2022-12-03T03:33:45.190Z,34.47
2022-12-03T03:36:13.063Z,37.40
2022-12-03T03:38:41.108Z,33.03
2022-12-03T03:41:09.472Z,31.43
2022-12-03T03:43:38.123Z,32.57
2022-12-03T03:46:06.396Z,35.77
2022-12-03T03:48:34.748Z,32.80
2022-12-03T03:51:03.581Z,38.73
2022-12-03T03:53:30.824Z,41.20
2022-12-03T03:55:57.181Z,34.20
2022-12-03T03:58:23.687Z,38.97
2022-12-03T04:00:50.107Z,33.03
2022-12-03T04:03:17.084Z,40.80
2022-12-03T04:05:43.420Z,35.83
2022-12-03T04:08:09.787Z,41.77
2022-12-03T04:10:54.608Z,39.60
2022-12-03T04:13:20.931Z,34.00
2022-12-03T04:15:47.455Z,39.70
2022-12-03T04:18:32.497Z,45.50
2022-12-03T04:21:18.795Z,39.80
2022-12-03T04:23:45.157Z,35.07
2022-12-03T04:26:30.076Z,42.17
2022-12-03T04:28:56.465Z,41.57
2022-12-03T04:31:41.149Z,39.10
2022-12-03T04:34:27.752Z,42.20
2022-12-03T04:36:54.861Z,35.00
2022-12-03T04:39:21.206Z,36.40
2022-12-03T04:41:47.519Z,35.77
2022-12-03T04:44:32.423Z,41.77
2022-12-03T04:47:01.942Z,32.43
2022-12-03T04:49:28.536Z,39.10
2022-12-03T04:51:54.855Z,41.40
2022-12-03T04:54:21.188Z,36.93
2022-12-03T04:56:47.492Z,41.07
2022-12-03T04:59:16.577Z,37.43
2022-12-03T05:01:43.865Z,45.17
2022-12-03T05:04:10.770Z,35.77
2022-12-03T05:06:37.149Z,35.70
2022-12-03T05:09:03.623Z,55.23
2022-12-03T05:11:30.135Z,38.43
2022-12-03T05:13:56.617Z,44.53
2022-12-03T05:16:23.013Z,41.70
2022-12-03T05:18:49.382Z,38.47
2022-12-03T05:21:15.858Z,46.93
2022-12-03T05:23:42.566Z,40.10
2022-12-03T05:26:08.917Z,47.03
2022-12-03T05:28:35.332Z,42.07
2022-12-03T05:31:01.720Z,47.47
2022-12-03T05:33:28.192Z,37.30
2022-12-03T05:35:54.566Z,39.70
2022-12-03T05:38:20.872Z,41.13
2022-12-03T05:40:47.188Z,42.70
2022-12-03T05:43:13.620Z,32.13
2022-12-03T05:45:41.409Z,39.47
2022-12-03T05:48:13.815Z,40.23
2022-12-03T05:50:43.839Z,37.33
2022-12-03T05:53:17.163Z,44.03
2022-12-03T05:55:43.687Z,43.10
2022-12-03T05:58:10.162Z,43.03
2022-12-03T06:00:42.430Z,46.27
2022-12-03T06:03:09.991Z,36.70
2022-12-03T06:05:36.459Z,38.17
2022-12-03T06:08:02.859Z,43.77
2022-12-03T06:10:29.670Z,34.30
2022-12-03T06:12:56.309Z,36.50
2022-12-03T06:15:23.064Z,41.90
2022-12-03T06:17:49.536Z,45.37
2022-12-03T06:20:18.298Z,42.77
2022-12-03T06:22:44.908Z,35.83
2022-12-03T06:25:12.156Z,48.93
2022-12-03T06:27:38.551Z,30.60
2022-12-03T06:30:06.757Z,46.70
2022-12-03T06:32:33.166Z,47.53
2022-12-03T06:34:59.494Z,37.53
2022-12-03T06:37:25.832Z,34.80
2022-12-03T06:39:52.140Z,44.80
2022-12-03T06:42:18.571Z,38.10
2022-12-03T06:44:44.871Z,47.17
2022-12-03T06:47:11.174Z,36.63
2022-12-03T06:49:37.485Z,49.23
2022-12-03T06:52:05.309Z,30.83
2022-12-03T06:54:31.651Z,38.77
2022-12-03T06:56:57.984Z,49.10
2022-12-03T06:59:24.321Z,39.60
2022-12-03T07:01:50.641Z,48.10
2022-12-03T07:04:17.010Z,43.10
2022-12-03T07:06:43.675Z,37.63
2022-12-03T07:09:10.018Z,47.20
2022-12-03T07:11:40.260Z,40.87
2022-12-03T07:14:08.236Z,42.37
2022-12-03T07:16:35.824Z,32.57
2022-12-03T07:19:03.387Z,47.87
2022-12-03T07:21:29.711Z,55.30
2022-12-03T07:23:56.104Z,32.37
2022-12-03T07:26:22.443Z,45.13
2022-12-03T07:28:48.763Z,38.10
2022-12-03T07:31:16.201Z,39.27
2022-12-03T07:33:42.715Z,36.67
2022-12-03T07:36:09.651Z,43.07
2022-12-03T07:38:36.120Z,36.47
2022-12-03T07:41:02.462Z,40.57
2022-12-03T07:43:28.785Z,37.90
2022-12-03T07:45:55.094Z,39.77
2022-12-03T07:48:21.403Z,36.97
2022-12-03T07:50:47.786Z,35.00
2022-12-03T07:53:15.056Z,42.33
2022-12-03T07:55:41.380Z,37.60
2022-12-03T07:58:08.920Z,43.20
2022-12-03T08:00:35.291Z,35.87
2022-12-03T08:03:01.670Z,39.20
2022-12-03T08:05:29.474Z,36.97
2022-12-03T08:07:55.980Z,35.13
2022-12-03T08:10:25.125Z,41.40
2022-12-03T08:12:51.573Z,40.20
2022-12-03T08:15:20.366Z,44.63
2022-12-03T08:17:53.515Z,34.40
2022-12-03T08:20:22.200Z,37.13
2022-12-03T08:22:51.227Z,35.03
2022-12-03T08:25:28.459Z,35.90
2022-12-03T08:28:12.632Z,40.40
2022-12-03T08:30:40.015Z,43.20
2022-12-03T08:33:28.259Z,36.37
2022-12-03T08:35:54.898Z,39.27
2022-12-03T08:38:23.844Z,36.93
2022-12-03T08:40:52.457Z,39.87
2022-12-03T08:43:25.946Z,38.03
2022-12-03T08:45:54.516Z,39.67
2022-12-03T08:48:36.739Z,33.23
2022-12-03T08:51:21.466Z,36.73
2022-12-03T08:53:51.938Z,35.13
2022-12-03T08:56:25.104Z,35.17
2022-12-03T08:58:54.137Z,40.63
2022-12-03T09:01:30.797Z,34.33
2022-12-03T09:04:13.459Z,37.30
2022-12-03T09:06:39.824Z,39.40
2022-12-03T09:09:06.966Z,37.60
2022-12-03T09:11:33.403Z,34.23
2022-12-03T09:13:59.733Z,40.80
2022-12-03T09:16:26.102Z,45.90
2022-12-03T09:18:52.560Z,34.53
2022-12-03T09:21:18.884Z,36.30
2022-12-03T09:23:45.192Z,39.93
2022-12-03T09:26:11.494Z,37.07
2022-12-03T09:28:37.805Z,38.83
2022-12-03T09:31:04.138Z,41.27
2022-12-03T09:33:32.271Z,37.67
2022-12-03T09:35:59.438Z,43.37
2022-12-03T09:38:25.989Z,35.43
2022-12-03T09:40:53.854Z,46.50
2022-12-03T09:43:20.630Z,43.83
2022-12-03T09:45:48.935Z,46.33
2022-12-03T09:48:18.147Z,37.63
2022-12-03T09:50:44.928Z,50.87
2022-12-03T09:53:17.447Z,45.37
2022-12-03T09:55:45.578Z,40.70
2022-12-03T09:58:13.898Z,43.87
2022-12-03T10:00:41.873Z,46.53
2022-12-03T10:03:12.347Z,41.83
2022-12-03T10:05:43.734Z,39.87
2022-12-03T10:08:18.376Z,44.63
2022-12-03T10:10:44.868Z,41.90
2022-12-03T10:13:25.673Z,36.53
2022-12-03T10:15:55.373Z,42.73
2022-12-03T10:18:24.834Z,40.37
2022-12-03T10:20:51.984Z,37.57
2022-12-03T10:23:29.646Z,54.77
2022-12-03T10:26:02.911Z,50.50
2022-12-03T10:28:38.938Z,41.27
2022-12-03T10:31:07.715Z,44.07
2022-12-03T10:33:44.576Z,43.20
2022-12-03T10:36:20.615Z,38.30
2022-12-03T10:39:04.951Z,45.87
2022-12-03T10:41:31.347Z,37.80
2022-12-03T10:44:14.771Z,41.30
2022-12-03T10:46:41.303Z,38.93
2022-12-03T10:49:17.005Z,42.77
2022-12-03T10:51:44.547Z,45.77
2022-12-03T10:54:21.100Z,42.90
2022-12-03T10:56:49.231Z,46.87
2022-12-03T10:59:22.632Z,46.73
2022-12-03T11:01:50.495Z,38.00
2022-12-03T11:04:32.228Z,40.73
2022-12-03T11:06:58.824Z,40.90
2022-12-03T11:09:29.395Z,42.87
2022-12-03T11:11:55.952Z,45.30
2022-12-03T11:14:51.391Z,47.60
2022-12-03T11:18:06.542Z,43.40
2022-12-03T11:20:35.993Z,42.30
2022-12-03T11:23:02.343Z,46.67
2022-12-03T11:25:28.659Z,39.47
2022-12-03T11:28:10.187Z,44.67
2022-12-03T11:30:48.918Z,48.97
2022-12-03T11:33:30.065Z,42.10
2022-12-03T11:36:05.447Z,41.57
2022-12-03T11:38:38.092Z,37.93
2022-12-03T11:41:10.424Z,40.03
2022-12-03T11:43:52.059Z,40.53
2022-12-03T11:46:25.324Z,46.40
2022-12-03T11:48:55.425Z,47.90
2022-12-03T11:51:24.370Z,40.13
2022-12-03T11:53:52.963Z,47.97
2022-12-03T11:56:23.850Z,41.60
2022-12-03T11:58:59.217Z,34.13
2022-12-03T12:01:40.500Z,47.37
2022-12-03T12:04:25.741Z,45.30
2022-12-03T12:06:53.604Z,37.27
2022-12-03T12:09:52.665Z,36.07
2022-12-03T12:12:40.768Z,43.57
2022-12-03T12:15:32.809Z,42.77
2022-12-03T12:18:37.780Z,44.83
2022-12-03T12:21:42.535Z,50.23
2022-12-03T12:24:32.151Z,39.50
2022-12-03T12:27:01.231Z,43.60
2022-12-03T12:29:28.112Z,36.93
2022-12-03T12:32:00.340Z,42.57
2022-12-03T12:34:26.776Z,43.23
2022-12-03T12:36:55.915Z,50.77
2022-12-03T12:39:22.361Z,46.87
2022-12-03T12:41:50.396Z,52.13
2022-12-03T12:44:18.249Z,45.60
2022-12-03T12:46:48.464Z,50.70
2022-12-03T12:49:24.976Z,54.00
2022-12-03T12:51:51.339Z,48.90
2022-12-03T12:54:18.656Z,42.50
2022-12-03T12:56:49.679Z,41.00
2022-12-03T12:59:20.028Z,36.13
2022-12-03T13:01:49.017Z,41.97
2022-12-03T13:04:22.504Z,48.83
2022-12-03T13:06:51.610Z,44.40
2022-12-03T13:09:25.851Z,52.03
2022-12-03T13:12:00.647Z,44.43
2022-12-03T13:14:36.777Z,44.23
2022-12-03T13:17:24.431Z,42.97
2022-12-03T13:20:00.584Z,38.23
2022-12-03T13:22:31.659Z,45.57
2022-12-03T13:25:06.764Z,42.17
2022-12-03T13:27:33.115Z,45.00
2022-12-03T13:30:13.414Z,41.67
2022-12-03T13:32:41.452Z,38.40
2022-12-03T13:35:35.791Z,48.77
2022-12-03T13:38:02.986Z,47.40
2022-12-03T13:40:32.800Z,37.93
2022-12-03T13:42:59.335Z,39.07
2022-12-03T13:45:39.090Z,44.90
2022-12-03T13:48:24.733Z,49.43
2022-12-03T13:50:53.159Z,53.43
2022-12-03T13:53:29.110Z,43.53
2022-12-03T13:56:03.179Z,44.30
2022-12-03T13:58:29.558Z,43.20
2022-12-03T14:00:56.037Z,40.20
2022-12-03T14:03:23.269Z,45.93
2022-12-03T14:05:49.584Z,41.20
2022-12-03T14:08:15.951Z,43.67
2022-12-03T14:10:42.319Z,52.40
2022-12-03T14:13:08.707Z,47.07
2022-12-03T14:15:34.998Z,48.20
2022-12-03T14:18:02.206Z,45.50
2022-12-03T14:20:28.522Z,52.00
2022-12-03T14:22:59.359Z,47.00
2022-12-03T14:25:26.350Z,42.70
2022-12-03T14:27:52.647Z,42.23
2022-12-03T14:30:19.051Z,33.37
2022-12-03T14:32:45.455Z,46.87
2022-12-03T14:35:11.752Z,40.83
2022-12-03T14:37:38.107Z,40.63
2022-12-03T14:40:07.188Z,34.13
2022-12-03T14:42:33.558Z,39.83
2022-12-03T14:45:00.004Z,41.43
2022-12-03T14:47:26.303Z,42.73
2022-12-03T14:49:53.268Z,45.10
2022-12-03T14:52:20.376Z,42.27
2022-12-03T14:54:46.706Z,42.93
2022-12-03T14:57:14.772Z,43.30
2022-12-03T14:59:42.402Z,41.43
2022-12-03T15:02:10.702Z,38.73
2022-12-03T15:04:37.998Z,40.70
2022-12-03T15:07:04.868Z,41.67
2022-12-03T15:09:31.266Z,44.63
2022-12-03T15:11:57.601Z,38.93
2022-12-03T15:14:24.116Z,37.80
2022-12-03T15:16:50.584Z,43.63
2022-12-03T15:19:16.976Z,47.90
2022-12-03T15:21:43.337Z,46.37
2022-12-03T15:24:10.410Z,38.57
2022-12-03T15:26:37.023Z,50.47
2022-12-03T15:29:03.366Z,42.80
2022-12-03T15:31:29.757Z,40.53
2022-12-03T15:33:56.078Z,41.53
2022-12-03T15:36:22.440Z,44.37
2022-12-03T15:38:48.833Z,45.07
2022-12-03T15:41:21.522Z,45.77
2022-12-03T15:43:48.553Z,41.57
2022-12-03T15:46:14.946Z,38.10
2022-12-03T15:48:41.424Z,46.93
2022-12-03T15:51:07.955Z,45.03
2022-12-03T15:53:34.283Z,39.13
2022-12-03T15:56:00.595Z,37.97
2022-12-03T15:58:26.902Z,44.63
2022-12-03T16:00:53.199Z,46.50
2022-12-03T16:03:19.652Z,44.67
2022-12-03T16:05:46.068Z,39.23
2022-12-03T16:08:12.470Z,36.90
2022-12-03T16:10:39.439Z,53.37
2022-12-03T16:13:05.806Z,45.13
2022-12-03T16:15:32.181Z,47.27
2022-12-03T16:17:58.548Z,48.00
2022-12-03T16:20:24.851Z,35.03
2022-12-03T16:22:52.064Z,39.37
2022-12-03T16:25:18.574Z,37.20
2022-12-03T16:27:44.873Z,37.37
2022-12-03T16:30:11.661Z,37.13
2022-12-03T16:32:38.043Z,38.47
2022-12-03T16:35:04.630Z,34.90
2022-12-03T16:37:31.146Z,39.13
2022-12-03T16:39:57.542Z,37.07
2022-12-03T16:42:24.357Z,42.50
2022-12-03T16:45:02.822Z,37.13
2022-12-03T16:47:33.578Z,32.37
2022-12-03T16:50:02.295Z,49.77
2022-12-03T16:52:28.756Z,29.73
2022-12-03T16:54:55.074Z,40.83
2022-12-03T16:57:21.619Z,40.10
2022-12-03T16:59:47.936Z,42.87
2022-12-03T17:02:14.428Z,37.90
2022-12-03T17:04:40.952Z,36.23
2022-12-03T17:07:07.264Z,41.83
2022-12-03T17:09:33.569Z,37.83
2022-12-03T17:11:59.938Z,46.77
2022-12-03T17:14:31.423Z,35.90
2022-12-03T17:16:59.496Z,40.33
2022-12-03T17:19:25.815Z,45.30
2022-12-03T17:21:53.866Z,41.07
2022-12-03T17:24:21.225Z,40.93
2022-12-03T17:26:47.532Z,37.10
2022-12-03T17:29:14.154Z,44.50
2022-12-03T17:31:42.620Z,40.60
2022-12-03T17:34:09.718Z,37.67
2022-12-03T17:36:36.060Z,36.30
2022-12-03T17:39:02.618Z,44.07
2022-12-03T17:41:28.975Z,37.53
2022-12-03T17:43:55.337Z,36.90
2022-12-03T17:46:21.754Z,45.87
2022-12-03T17:48:48.104Z,44.23
2022-12-03T17:51:14.557Z,46.27
2022-12-03T17:53:41.659Z,43.03
2022-12-03T17:56:08.203Z,35.23
2022-12-03T17:58:34.811Z,44.57
2022-12-03T18:01:03.063Z,35.40
2022-12-03T18:03:32.742Z,42.27
2022-12-03T18:05:59.151Z,41.07
2022-12-03T18:08:25.463Z,40.07
2022-12-03T18:10:51.838Z,44.23
2022-12-03T18:13:18.196Z,43.57
2022-12-03T18:15:44.698Z,44.07
2022-12-03T18:18:11.450Z,40.23
2022-12-03T18:20:38.049Z,43.37
2022-12-03T18:23:05.037Z,46.87
2022-12-03T18:25:31.617Z,51.63
2022-12-03T18:27:58.163Z,42.63
2022-12-03T18:30:24.560Z,40.13
2022-12-03T18:32:50.907Z,50.13
2022-12-03T18:35:17.926Z,41.30
2022-12-03T18:37:44.309Z,48.03
2022-12-03T18:40:17.845Z,42.30
2022-12-03T18:42:44.292Z,44.70
2022-12-03T18:45:11.895Z,50.80
2022-12-03T18:47:38.833Z,38.13
2022-12-03T18:50:06.319Z,50.40
2022-12-03T18:52:32.815Z,47.03
2022-12-03T18:54:59.116Z,42.73
2022-12-03T18:57:25.440Z,42.90
2022-12-03T18:59:52.003Z,51.77
2022-12-03T19:03:01.915Z,46.97
2022-12-03T19:05:10.026Z,51.67
2022-12-03T19:07:36.871Z,36.07
2022-12-03T19:10:04.469Z,42.57
2022-12-03T19:12:31.113Z,47.37
2022-12-03T19:14:57.463Z,52.57
2022-12-03T19:17:23.920Z,42.53
2022-12-03T19:19:50.225Z,53.97
2022-12-03T19:22:16.571Z,59.37
2022-12-03T19:24:43.589Z,46.93
2022-12-03T19:27:09.995Z,46.60
2022-12-03T19:29:36.310Z,51.60
2022-12-03T19:32:02.731Z,46.80
2022-12-03T19:34:29.797Z,44.97
2022-12-03T19:36:56.239Z,49.30
2022-12-03T19:39:22.572Z,50.10
2022-12-03T19:41:48.937Z,51.00
2022-12-03T19:44:17.365Z,40.43
2022-12-03T19:46:44.142Z,50.07
2022-12-03T19:49:11.320Z,47.53
2022-12-03T19:51:38.039Z,49.00
2022-12-03T19:54:06.332Z,45.40
2022-12-03T19:56:32.756Z,43.90
2022-12-03T19:58:59.106Z,50.23
2022-12-03T20:01:28.333Z,74.37
2022-12-03T20:03:57.300Z,53.37
2022-12-03T20:06:27.367Z,51.47
2022-12-03T20:09:02.119Z,48.07
2022-12-03T20:11:31.179Z,52.90
2022-12-03T20:14:03.265Z,50.57
2022-12-03T20:16:30.233Z,49.97
2022-12-03T20:18:59.192Z,53.17
2022-12-03T20:21:25.986Z,48.30
2022-12-03T20:23:52.972Z,51.20
2022-12-03T20:26:20.960Z,52.93
2022-12-03T20:28:50.180Z,46.70
2022-12-03T20:31:19.079Z,56.17
2022-12-03T20:33:48.295Z,46.27
2022-12-03T20:36:16.376Z,51.27
2022-12-03T20:38:44.875Z,49.90
2022-12-03T20:41:14.528Z,51.30
2022-12-03T20:43:41.118Z,45.70
2022-12-03T20:46:19.501Z,60.77
2022-12-03T20:48:46.249Z,49.70
2022-12-03T20:51:18.290Z,49.33
2022-12-03T20:53:45.316Z,48.10
2022-12-03T20:56:20.386Z,54.60
2022-12-03T20:58:48.849Z,61.80
2022-12-03T21:01:18.537Z,54.73
2022-12-03T21:03:49.484Z,47.57
2022-12-03T21:06:16.592Z,59.83
2022-12-03T21:08:43.705Z,56.03
2022-12-03T21:11:15.782Z,56.63
2022-12-03T21:13:43.790Z,54.30
2022-12-03T21:16:14.888Z,61.10
2022-12-03T21:18:42.383Z,55.60
2022-12-03T21:21:11.622Z,50.57
2022-12-03T21:23:38.034Z,59.53
2022-12-03T21:26:12.730Z,62.23
2022-12-03T21:28:41.065Z,52.93
2022-12-03T21:31:09.804Z,61.20
2022-12-03T21:33:37.134Z,61.00
2022-12-03T21:36:04.841Z,59.67
2022-12-03T21:38:32.145Z,54.10
2022-12-03T21:40:59.224Z,56.70
2022-12-03T21:43:25.773Z,69.87
2022-12-03T21:45:52.496Z,59.43
2022-12-03T21:48:20.137Z,50.70
2022-12-03T21:50:59.261Z,54.03
2022-12-03T21:53:25.938Z,55.00
2022-12-03T21:55:52.281Z,54.83
2022-12-03T21:58:18.617Z,58.13
2022-12-03T22:00:44.938Z,52.23
2022-12-03T22:03:11.301Z,51.23
2022-12-03T22:05:38.442Z,58.87
2022-12-03T22:08:05.142Z,59.87
2022-12-03T22:10:31.512Z,55.20
2022-12-03T22:12:57.818Z,57.80
2022-12-03T22:15:24.152Z,52.47
2022-12-03T22:17:50.512Z,47.50
2022-12-03T22:20:16.845Z,59.07
2022-12-03T22:22:43.234Z,47.77
2022-12-03T22:25:09.827Z,52.80
2022-12-03T22:27:36.156Z,58.50
2022-12-03T22:30:03.714Z,51.07
2022-12-03T22:32:30.068Z,52.20
2022-12-03T22:34:56.427Z,54.63
2022-12-03T22:37:22.816Z,49.97
2022-12-03T22:39:49.131Z,47.80
2022-12-03T22:42:15.454Z,53.87
2022-12-03T22:44:41.967Z,61.53
2022-12-03T22:47:08.381Z,50.60
2022-12-03T22:49:34.836Z,54.60
2022-12-03T22:52:01.169Z,49.93
2022-12-03T22:54:27.511Z,66.60
2022-12-03T22:56:53.819Z,61.43
2022-12-03T22:59:20.128Z,50.43
2022-12-03T23:01:47.265Z,51.30
2022-12-03T23:04:13.620Z,58.03
2022-12-03T23:06:40.120Z,59.57
2022-12-03T23:09:07.980Z,53.70
2022-12-03T23:11:34.713Z,58.50
2022-12-03T23:14:01.410Z,47.60
2022-12-03T23:16:30.153Z,57.53
2022-12-03T23:19:01.647Z,55.70
2022-12-03T23:21:30.905Z,55.13
2022-12-03T23:24:01.915Z,51.57
2022-12-03T23:26:28.854Z,55.00
2022-12-03T23:28:56.319Z,54.60
2022-12-03T23:31:26.157Z,49.33
2022-12-03T23:33:53.461Z,59.20
2022-12-03T23:36:20.705Z,51.73
2022-12-03T23:38:47.116Z,55.40
2022-12-03T23:41:16.176Z,58.73
2022-12-03T23:43:42.812Z,52.07
2022-12-03T23:46:15.471Z,58.67
2022-12-03T23:48:42.231Z,59.77
2022-12-03T23:51:14.242Z,51.13
2022-12-03T23:53:41.030Z,53.33
2022-12-03T23:56:12.886Z,59.20
2022-12-03T23:58:39.324Z,61.90
